sensor_id;sensor_type;location;lat;lon;timestamp;P1;durP1;ratioP1;P2;durP2;ratioP2
46607;SDS011;32330;51.936;7.184;2022-12-20T03:15:19;4.43;;;1.75;;
46607;SDS011;32330;51.936;7.184;2022-12-20T03:20:16;4.55;;;1.88;;
46607;SDS011;32330;51.936;7.184;2022-12-20T03:22:43;3.03;;;1.92;;
46607;SDS011;32330;51.936;7.184;2022-12-20T03:25:10;5.50;;;2.15;;
46607;SDS011;32330;51.936;7.184;2022-12-20T03:27:38;3.78;;;1.90;;
46607;SDS011;32330;51.936;7.184;2022-12-20T03:30:05;3.70;;;2.15;;
46607;SDS011;32330;51.936;7.184;2022-12-20T03:32:37;2.63;;;1.77;;
46607;SDS011;32330;51.936;7.184;2022-12-20T03:35:05;4.68;;;1.95;;
46607;SDS011;32330;51.936;7.184;2022-12-20T03:37:36;5.90;;;2.28;;
46607;SDS011;32330;51.936;7.184;2022-12-20T03:40:05;2.95;;;1.70;;
46607;SDS011;32330;51.936;7.184;2022-12-20T03:42:33;2.30;;;1.60;;
46607;SDS011;32330;51.936;7.184;2022-12-20T03:45:00;2.97;;;1.95;;
46607;SDS011;32330;51.936;7.184;2022-12-20T03:47:29;2.63;;;1.63;;
46607;SDS011;32330;51.936;7.184;2022-12-20T03:49:57;2.83;;;1.83;;
46607;SDS011;32330;51.936;7.184;2022-12-20T03:52:26;3.38;;;1.83;;
46607;SDS011;32330;51.936;7.184;2022-12-20T03:54:53;3.90;;;2.63;;
46607;SDS011;32330;51.936;7.184;2022-12-20T03:57:25;3.95;;;2.08;;
46607;SDS011;32330;51.936;7.184;2022-12-20T03:59:54;4.40;;;2.00;;
46607;SDS011;32330;51.936;7.184;2022-12-20T04:02:21;2.60;;;1.92;;
46607;SDS011;32330;51.936;7.184;2022-12-20T04:04:49;4.47;;;2.13;;
46607;SDS011;32330;51.936;7.184;2022-12-20T04:07:18;4.43;;;2.10;;
46607;SDS011;32330;51.936;7.184;2022-12-20T04:09:46;2.65;;;2.15;;
46607;SDS011;32330;51.936;7.184;2022-12-20T04:12:14;3.03;;;2.10;;
46607;SDS011;32330;51.936;7.184;2022-12-20T04:14:42;4.70;;;2.92;;
46607;SDS011;32330;51.936;7.184;2022-12-20T04:17:10;5.10;;;2.75;;
46607;SDS011;32330;51.936;7.184;2022-12-20T04:19:37;5.05;;;2.80;;
46607;SDS011;32330;51.936;7.184;2022-12-20T04:22:06;4.32;;;2.78;;
46607;SDS011;32330;51.936;7.184;2022-12-20T04:24:48;6.22;;;2.40;;
46607;SDS011;32330;51.936;7.184;2022-12-20T04:27:21;4.72;;;2.70;;
46607;SDS011;32330;51.936;7.184;2022-12-20T04:29:50;5.53;;;2.58;;
46607;SDS011;32330;51.936;7.184;2022-12-20T04:32:18;6.15;;;3.05;;
46607;SDS011;32330;51.936;7.184;2022-12-20T04:34:45;3.58;;;2.70;;
46607;SDS011;32330;51.936;7.184;2022-12-20T04:37:12;3.38;;;2.50;;
46607;SDS011;32330;51.936;7.184;2022-12-20T04:39:46;6.07;;;2.45;;
46607;SDS011;32330;51.936;7.184;2022-12-20T04:42:20;5.65;;;3.75;;
46607;SDS011;32330;51.936;7.184;2022-12-20T04:44:49;5.45;;;2.70;;
46607;SDS011;32330;51.936;7.184;2022-12-20T04:47:21;3.97;;;2.95;;
46607;SDS011;32330;51.936;7.184;2022-12-20T04:49:50;6.18;;;3.47;;
46607;SDS011;32330;51.936;7.184;2022-12-20T04:52:16;9.25;;;5.47;;
46607;SDS011;32330;51.936;7.184;2022-12-20T04:55:01;5.55;;;3.08;;
46607;SDS011;32330;51.936;7.184;2022-12-20T04:57:32;4.63;;;2.90;;
46607;SDS011;32330;51.936;7.184;2022-12-20T04:59:59;4.15;;;3.15;;
46607;SDS011;32330;51.936;7.184;2022-12-20T05:02:26;7.05;;;2.97;;
46607;SDS011;32330;51.936;7.184;2022-12-20T05:04:59;5.00;;;2.83;;
46607;SDS011;32330;51.936;7.184;2022-12-20T05:07:28;4.85;;;2.80;;
46607;SDS011;32330;51.936;7.184;2022-12-20T05:09:55;4.18;;;2.72;;
46607;SDS011;32330;51.936;7.184;2022-12-20T05:12:22;3.58;;;2.42;;
46607;SDS011;32330;51.936;7.184;2022-12-20T05:14:51;6.18;;;2.80;;
46607;SDS011;32330;51.936;7.184;2022-12-20T05:17:20;4.03;;;2.28;;
46607;SDS011;32330;51.936;7.184;2022-12-20T05:19:47;4.75;;;2.70;;
46607;SDS011;32330;51.936;7.184;2022-12-20T05:22:15;6.25;;;2.85;;
46607;SDS011;32330;51.936;7.184;2022-12-20T05:25:07;4.32;;;2.67;;
46607;SDS011;32330;51.936;7.184;2022-12-20T05:27:54;6.07;;;2.40;;
46607;SDS011;32330;51.936;7.184;2022-12-20T05:30:25;4.88;;;2.67;;
46607;SDS011;32330;51.936;7.184;2022-12-20T05:32:52;4.28;;;2.60;;
46607;SDS011;32330;51.936;7.184;2022-12-20T05:35:19;4.40;;;2.65;;
46607;SDS011;32330;51.936;7.184;2022-12-20T05:37:51;4.55;;;2.50;;
46607;SDS011;32330;51.936;7.184;2022-12-20T05:40:19;4.18;;;2.50;;
46607;SDS011;32330;51.936;7.184;2022-12-20T05:42:48;4.80;;;2.45;;
46607;SDS011;32330;51.936;7.184;2022-12-20T05:45:15;4.78;;;2.45;;
46607;SDS011;32330;51.936;7.184;2022-12-20T05:47:49;3.70;;;2.30;;
46607;SDS011;32330;51.936;7.184;2022-12-20T05:50:16;6.80;;;2.33;;
46607;SDS011;32330;51.936;7.184;2022-12-20T05:53:04;3.63;;;2.30;;
46607;SDS011;32330;51.936;7.184;2022-12-20T05:55:31;2.80;;;2.40;;
46607;SDS011;32330;51.936;7.184;2022-12-20T05:57:58;4.72;;;2.50;;
46607;SDS011;32330;51.936;7.184;2022-12-20T06:00:41;3.35;;;2.33;;
46607;SDS011;32330;51.936;7.184;2022-12-20T06:03:10;6.25;;;3.85;;
46607;SDS011;32330;51.936;7.184;2022-12-20T06:05:39;3.70;;;2.05;;
46607;SDS011;32330;51.936;7.184;2022-12-20T06:08:10;5.03;;;2.78;;
46607;SDS011;32330;51.936;7.184;2022-12-20T06:10:38;4.97;;;2.60;;
46607;SDS011;32330;51.936;7.184;2022-12-20T06:13:10;4.80;;;2.30;;
46607;SDS011;32330;51.936;7.184;2022-12-20T06:15:38;3.30;;;2.33;;
46607;SDS011;32330;51.936;7.184;2022-12-20T06:18:05;3.90;;;2.47;;
46607;SDS011;32330;51.936;7.184;2022-12-20T06:20:34;5.05;;;2.90;;
46607;SDS011;32330;51.936;7.184;2022-12-20T06:23:02;6.28;;;2.78;;
46607;SDS011;32330;51.936;7.184;2022-12-20T06:25:35;3.83;;;2.85;;
46607;SDS011;32330;51.936;7.184;2022-12-20T06:28:04;7.90;;;2.60;;
46607;SDS011;32330;51.936;7.184;2022-12-20T06:30:32;5.22;;;2.55;;
46607;SDS011;32330;51.936;7.184;2022-12-20T06:33:22;6.38;;;2.95;;
46607;SDS011;32330;51.936;7.184;2022-12-20T06:35:51;3.97;;;2.55;;
46607;SDS011;32330;51.936;7.184;2022-12-20T06:38:21;5.25;;;2.80;;
46607;SDS011;32330;51.936;7.184;2022-12-20T06:40:48;3.80;;;3.03;;
46607;SDS011;32330;51.936;7.184;2022-12-20T06:43:15;7.40;;;3.45;;
46607;SDS011;32330;51.936;7.184;2022-12-20T06:45:42;6.53;;;3.92;;
46607;SDS011;32330;51.936;7.184;2022-12-20T06:48:10;6.18;;;3.28;;
46607;SDS011;32330;51.936;7.184;2022-12-20T06:50:38;5.45;;;3.25;;
46607;SDS011;32330;51.936;7.184;2022-12-20T06:53:07;4.47;;;3.33;;
46607;SDS011;32330;51.936;7.184;2022-12-20T06:55:34;5.45;;;4.65;;
46607;SDS011;32330;51.936;7.184;2022-12-20T06:58:02;5.88;;;3.30;;
46607;SDS011;32330;51.936;7.184;2022-12-20T07:00:29;6.53;;;3.30;;
46607;SDS011;32330;51.936;7.184;2022-12-20T07:02:56;5.18;;;3.80;;
46607;SDS011;32330;51.936;7.184;2022-12-20T07:05:23;6.40;;;3.88;;
46607;SDS011;32330;51.936;7.184;2022-12-20T07:07:50;7.72;;;4.65;;
46607;SDS011;32330;51.936;7.184;2022-12-20T07:10:18;7.75;;;5.25;;
46607;SDS011;32330;51.936;7.184;2022-12-20T07:12:45;7.75;;;5.05;;
46607;SDS011;32330;51.936;7.184;2022-12-20T07:15:12;6.63;;;4.25;;
46607;SDS011;32330;51.936;7.184;2022-12-20T07:17:40;5.82;;;4.80;;
46607;SDS011;32330;51.936;7.184;2022-12-20T07:20:07;6.70;;;4.75;;
46607;SDS011;32330;51.936;7.184;2022-12-20T07:22:34;6.15;;;3.65;;
46607;SDS011;32330;51.936;7.184;2022-12-20T07:25:01;8.07;;;4.43;;
46607;SDS011;32330;51.936;7.184;2022-12-20T07:27:30;6.10;;;3.88;;
46607;SDS011;32330;51.936;7.184;2022-12-20T07:29:57;7.53;;;3.70;;
46607;SDS011;32330;51.936;7.184;2022-12-20T07:32:24;5.03;;;2.90;;
46607;SDS011;32330;51.936;7.184;2022-12-20T07:34:51;4.05;;;2.65;;
46607;SDS011;32330;51.936;7.184;2022-12-20T07:37:18;5.47;;;4.18;;
46607;SDS011;32330;51.936;7.184;2022-12-20T07:39:45;6.82;;;4.22;;
46607;SDS011;32330;51.936;7.184;2022-12-20T07:42:12;6.10;;;3.88;;
46607;SDS011;32330;51.936;7.184;2022-12-20T07:44:48;7.60;;;5.43;;
46607;SDS011;32330;51.936;7.184;2022-12-20T07:47:15;7.57;;;4.90;;
46607;SDS011;32330;51.936;7.184;2022-12-20T07:49:42;5.00;;;3.65;;
46607;SDS011;32330;51.936;7.184;2022-12-20T07:52:09;12.65;;;4.50;;
46607;SDS011;32330;51.936;7.184;2022-12-20T07:54:39;6.22;;;4.45;;
46607;SDS011;32330;51.936;7.184;2022-12-20T07:57:11;6.13;;;3.90;;
46607;SDS011;32330;51.936;7.184;2022-12-20T07:59:43;5.53;;;3.22;;
46607;SDS011;32330;51.936;7.184;2022-12-20T08:02:14;2.80;;;2.38;;
46607;SDS011;32330;51.936;7.184;2022-12-20T08:07:10;5.32;;;3.00;;
46607;SDS011;32330;51.936;7.184;2022-12-20T08:09:38;5.57;;;2.53;;
46607;SDS011;32330;51.936;7.184;2022-12-20T08:12:09;5.15;;;3.63;;
46607;SDS011;32330;51.936;7.184;2022-12-20T08:14:38;6.57;;;3.58;;
46607;SDS011;32330;51.936;7.184;2022-12-20T08:17:05;4.78;;;3.70;;
46607;SDS011;32330;51.936;7.184;2022-12-20T08:19:33;4.93;;;2.70;;
46607;SDS011;32330;51.936;7.184;2022-12-20T08:22:00;5.80;;;2.80;;
46607;SDS011;32330;51.936;7.184;2022-12-20T08:24:27;5.95;;;2.50;;
46607;SDS011;32330;51.936;7.184;2022-12-20T08:26:54;4.63;;;2.50;;
46607;SDS011;32330;51.936;7.184;2022-12-20T08:29:22;4.90;;;2.45;;
46607;SDS011;32330;51.936;7.184;2022-12-20T08:31:48;4.93;;;3.05;;
46607;SDS011;32330;51.936;7.184;2022-12-20T08:34:16;4.10;;;3.05;;
46607;SDS011;32330;51.936;7.184;2022-12-20T08:36:45;3.13;;;2.03;;
46607;SDS011;32330;51.936;7.184;2022-12-20T08:39:12;6.15;;;2.10;;
46607;SDS011;32330;51.936;7.184;2022-12-20T08:41:38;6.28;;;2.95;;
46607;SDS011;32330;51.936;7.184;2022-12-20T08:44:05;3.45;;;2.50;;
46607;SDS011;32330;51.936;7.184;2022-12-20T08:46:33;5.05;;;2.65;;
46607;SDS011;32330;51.936;7.184;2022-12-20T08:49:01;3.10;;;2.33;;
46607;SDS011;32330;51.936;7.184;2022-12-20T08:51:28;6.07;;;2.15;;
46607;SDS011;32330;51.936;7.184;2022-12-20T08:53:56;4.68;;;2.83;;
46607;SDS011;32330;51.936;7.184;2022-12-20T08:56:23;4.85;;;2.15;;
46607;SDS011;32330;51.936;7.184;2022-12-20T08:58:50;5.72;;;2.45;;
46607;SDS011;32330;51.936;7.184;2022-12-20T09:01:18;4.25;;;2.55;;
46607;SDS011;32330;51.936;7.184;2022-12-20T09:03:46;4.45;;;2.10;;
46607;SDS011;32330;51.936;7.184;2022-12-20T09:06:14;3.60;;;2.58;;
46607;SDS011;32330;51.936;7.184;2022-12-20T09:08:43;3.72;;;2.13;;
46607;SDS011;32330;51.936;7.184;2022-12-20T09:11:12;5.45;;;1.90;;
46607;SDS011;32330;51.936;7.184;2022-12-20T09:13:40;5.10;;;2.65;;
46607;SDS011;32330;51.936;7.184;2022-12-20T09:16:08;4.68;;;1.90;;
46607;SDS011;32330;51.936;7.184;2022-12-20T09:18:36;2.75;;;1.83;;
46607;SDS011;32330;51.936;7.184;2022-12-20T09:21:04;5.53;;;2.20;;
46607;SDS011;32330;51.936;7.184;2022-12-20T09:23:33;3.25;;;1.90;;
46607;SDS011;32330;51.936;7.184;2022-12-20T09:26:01;6.13;;;2.70;;
46607;SDS011;32330;51.936;7.184;2022-12-20T09:28:31;6.00;;;2.17;;
46607;SDS011;32330;51.936;7.184;2022-12-20T09:30:58;5.95;;;2.30;;
46607;SDS011;32330;51.936;7.184;2022-12-20T09:33:26;3.65;;;1.80;;
46607;SDS011;32330;51.936;7.184;2022-12-20T09:35:53;5.78;;;2.13;;
46607;SDS011;32330;51.936;7.184;2022-12-20T09:38:20;4.10;;;2.05;;
46607;SDS011;32330;51.936;7.184;2022-12-20T09:40:48;5.53;;;1.83;;
46607;SDS011;32330;51.936;7.184;2022-12-20T09:43:16;4.25;;;1.88;;
46607;SDS011;32330;51.936;7.184;2022-12-20T09:45:46;4.20;;;1.88;;
46607;SDS011;32330;51.936;7.184;2022-12-20T09:48:17;6.00;;;2.00;;
46607;SDS011;32330;51.936;7.184;2022-12-20T09:50:49;3.88;;;1.80;;
46607;SDS011;32330;51.936;7.184;2022-12-20T09:53:31;2.72;;;1.80;;
46607;SDS011;32330;51.936;7.184;2022-12-20T09:56:09;3.50;;;1.95;;
46607;SDS011;32330;51.936;7.184;2022-12-20T09:58:46;5.80;;;1.77;;
46607;SDS011;32330;51.936;7.184;2022-12-20T10:01:28;3.92;;;1.88;;
46607;SDS011;32330;51.936;7.184;2022-12-20T10:03:57;2.30;;;1.40;;
46607;SDS011;32330;51.936;7.184;2022-12-20T10:06:28;4.75;;;1.85;;
46607;SDS011;32330;51.936;7.184;2022-12-20T10:09:04;3.20;;;1.80;;
46607;SDS011;32330;51.936;7.184;2022-12-20T10:11:40;2.97;;;1.50;;
46607;SDS011;32330;51.936;7.184;2022-12-20T10:14:23;3.53;;;2.08;;
46607;SDS011;32330;51.936;7.184;2022-12-20T10:17:15;3.42;;;1.80;;
46607;SDS011;32330;51.936;7.184;2022-12-20T10:19:58;2.90;;;1.60;;
46607;SDS011;32330;51.936;7.184;2022-12-20T10:22:35;3.15;;;1.73;;
46607;SDS011;32330;51.936;7.184;2022-12-20T10:25:12;4.47;;;1.75;;
46607;SDS011;32330;51.936;7.184;2022-12-20T10:27:41;5.25;;;2.00;;
46607;SDS011;32330;51.936;7.184;2022-12-20T10:30:12;3.65;;;1.90;;
46607;SDS011;32330;51.936;7.184;2022-12-20T10:32:41;3.67;;;1.85;;
46607;SDS011;32330;51.936;7.184;2022-12-20T10:35:15;9.30;;;3.58;;
46607;SDS011;32330;51.936;7.184;2022-12-20T10:37:55;3.97;;;2.13;;
46607;SDS011;32330;51.936;7.184;2022-12-20T10:40:25;9.05;;;8.15;;
46607;SDS011;32330;51.936;7.184;2022-12-20T10:42:53;5.53;;;2.22;;
46607;SDS011;32330;51.936;7.184;2022-12-20T10:45:26;4.55;;;3.50;;
46607;SDS011;32330;51.936;7.184;2022-12-20T10:51:20;6.40;;;3.38;;
46607;SDS011;32330;51.936;7.184;2022-12-20T10:53:51;6.20;;;5.60;;
46607;SDS011;32330;51.936;7.184;2022-12-20T10:56:21;5.53;;;4.05;;
46607;SDS011;32330;51.936;7.184;2022-12-20T10:58:52;6.13;;;3.50;;
46607;SDS011;32330;51.936;7.184;2022-12-20T11:01:22;5.03;;;2.15;;
46607;SDS011;32330;51.936;7.184;2022-12-20T11:03:54;4.63;;;2.33;;
46607;SDS011;32330;51.936;7.184;2022-12-20T11:06:25;5.15;;;2.72;;
46607;SDS011;32330;51.936;7.184;2022-12-20T11:14:37;4.15;;;2.05;;
46607;SDS011;32330;51.936;7.184;2022-12-20T11:17:13;3.95;;;2.00;;
46607;SDS011;32330;51.936;7.184;2022-12-20T11:19:50;4.90;;;2.13;;
46607;SDS011;32330;51.936;7.184;2022-12-20T11:22:31;3.53;;;2.22;;
46607;SDS011;32330;51.936;7.184;2022-12-20T11:25:18;3.67;;;1.80;;
46607;SDS011;32330;51.936;7.184;2022-12-20T11:28:09;3.65;;;2.47;;
46607;SDS011;32330;51.936;7.184;2022-12-20T11:30:49;3.38;;;1.90;;
46607;SDS011;32330;51.936;7.184;2022-12-20T11:33:36;6.40;;;3.10;;
46607;SDS011;32330;51.936;7.184;2022-12-20T11:36:20;5.20;;;2.92;;
46607;SDS011;32330;51.936;7.184;2022-12-20T11:38:56;6.47;;;3.55;;
46607;SDS011;32330;51.936;7.184;2022-12-20T11:41:31;3.78;;;2.50;;
46607;SDS011;32330;51.936;7.184;2022-12-20T11:44:05;4.47;;;2.67;;
46607;SDS011;32330;51.936;7.184;2022-12-20T11:46:43;3.53;;;2.33;;
46607;SDS011;32330;51.936;7.184;2022-12-20T11:49:23;4.18;;;2.20;;
46607;SDS011;32330;51.936;7.184;2022-12-20T11:52:09;6.45;;;2.92;;
46607;SDS011;32330;51.936;7.184;2022-12-20T11:54:46;3.22;;;1.80;;
46607;SDS011;32330;51.936;7.184;2022-12-20T11:57:19;2.72;;;1.80;;
46607;SDS011;32330;51.936;7.184;2022-12-20T11:59:51;6.88;;;5.00;;
46607;SDS011;32330;51.936;7.184;2022-12-20T12:02:21;3.60;;;3.25;;
46607;SDS011;32330;51.936;7.184;2022-12-20T12:04:53;6.20;;;2.55;;
46607;SDS011;32330;51.936;7.184;2022-12-20T12:07:25;2.90;;;1.70;;
46607;SDS011;32330;51.936;7.184;2022-12-20T12:09:59;3.70;;;1.83;;
46607;SDS011;32330;51.936;7.184;2022-12-20T12:12:30;6.15;;;1.75;;
46607;SDS011;32330;51.936;7.184;2022-12-20T12:14:59;4.00;;;2.35;;
46607;SDS011;32330;51.936;7.184;2022-12-20T12:17:31;3.78;;;2.50;;
46607;SDS011;32330;51.936;7.184;2022-12-20T12:20:17;4.97;;;2.55;;
46607;SDS011;32330;51.936;7.184;2022-12-20T12:22:49;6.28;;;3.53;;
46607;SDS011;32330;51.936;7.184;2022-12-20T12:25:22;6.57;;;3.40;;
46607;SDS011;32330;51.936;7.184;2022-12-20T12:27:49;4.70;;;2.55;;
46607;SDS011;32330;51.936;7.184;2022-12-20T12:30:16;4.85;;;2.65;;
46607;SDS011;32330;51.936;7.184;2022-12-20T12:32:45;3.95;;;2.45;;
46607;SDS011;32330;51.936;7.184;2022-12-20T12:41:45;13.05;;;3.55;;
46607;SDS011;32330;51.936;7.184;2022-12-20T12:44:45;5.90;;;3.22;;
46607;SDS011;32330;51.936;7.184;2022-12-20T12:47:18;4.82;;;3.20;;
46607;SDS011;32330;51.936;7.184;2022-12-20T12:49:49;5.03;;;3.22;;
46607;SDS011;32330;51.936;7.184;2022-12-20T12:52:28;4.13;;;2.78;;
46607;SDS011;32330;51.936;7.184;2022-12-20T12:58:14;5.68;;;3.83;;
46607;SDS011;32330;51.936;7.184;2022-12-20T13:00:56;3.70;;;2.58;;
46607;SDS011;32330;51.936;7.184;2022-12-20T13:03:38;3.63;;;2.72;;
46607;SDS011;32330;51.936;7.184;2022-12-20T13:06:41;5.18;;;3.08;;
46607;SDS011;32330;51.936;7.184;2022-12-20T13:09:39;4.55;;;2.50;;
46607;SDS011;32330;51.936;7.184;2022-12-20T13:15:50;4.72;;;3.03;;
46607;SDS011;32330;51.936;7.184;2022-12-20T13:18:29;6.03;;;2.88;;
46607;SDS011;32330;51.936;7.184;2022-12-20T13:27:02;5.03;;;2.78;;
46607;SDS011;32330;51.936;7.184;2022-12-20T13:29:50;4.43;;;2.70;;
46607;SDS011;32330;51.936;7.184;2022-12-20T13:35:30;5.35;;;3.13;;
46607;SDS011;32330;51.936;7.184;2022-12-20T13:41:24;4.90;;;2.92;;
46607;SDS011;32330;51.936;7.184;2022-12-20T13:44:23;5.22;;;3.28;;
46607;SDS011;32330;51.936;7.184;2022-12-20T13:53:13;12.68;;;4.10;;
46607;SDS011;32330;51.936;7.184;2022-12-20T13:55:43;10.88;;;3.22;;
46607;SDS011;32330;51.936;7.184;2022-12-20T13:58:12;5.95;;;3.65;;
46607;SDS011;32330;51.936;7.184;2022-12-20T14:00:41;4.53;;;3.20;;
46607;SDS011;32330;51.936;7.184;2022-12-20T14:03:15;7.30;;;4.10;;
46607;SDS011;32330;51.936;7.184;2022-12-20T14:05:49;7.88;;;4.57;;
46607;SDS011;32330;51.936;7.184;2022-12-20T14:08:22;5.85;;;3.92;;
46607;SDS011;32330;51.936;7.184;2022-12-20T14:10:52;6.32;;;3.85;;
46607;SDS011;32330;51.936;7.184;2022-12-20T14:13:21;8.15;;;3.90;;
46607;SDS011;32330;51.936;7.184;2022-12-20T14:15:49;5.93;;;3.97;;
46607;SDS011;32330;51.936;7.184;2022-12-20T14:18:18;5.95;;;3.70;;
46607;SDS011;32330;51.936;7.184;2022-12-20T14:20:46;8.32;;;3.85;;
46607;SDS011;32330;51.936;7.184;2022-12-20T14:23:17;5.40;;;3.20;;
46607;SDS011;32330;51.936;7.184;2022-12-20T14:25:46;5.20;;;4.15;;
46607;SDS011;32330;51.936;7.184;2022-12-20T14:28:17;5.25;;;3.70;;
46607;SDS011;32330;51.936;7.184;2022-12-20T14:30:50;5.57;;;4.30;;
46607;SDS011;32330;51.936;7.184;2022-12-20T14:33:18;6.15;;;4.57;;
46607;SDS011;32330;51.936;7.184;2022-12-20T14:35:54;6.97;;;4.43;;
46607;SDS011;32330;51.936;7.184;2022-12-20T14:38:24;6.20;;;4.93;;
46607;SDS011;32330;51.936;7.184;2022-12-20T14:40:54;7.13;;;5.30;;
46607;SDS011;32330;51.936;7.184;2022-12-20T14:43:23;5.72;;;3.75;;
46607;SDS011;32330;51.936;7.184;2022-12-20T14:46:06;8.07;;;4.50;;
46607;SDS011;32330;51.936;7.184;2022-12-20T14:48:40;6.20;;;3.90;;
46607;SDS011;32330;51.936;7.184;2022-12-20T14:51:07;7.40;;;3.13;;
46607;SDS011;32330;51.936;7.184;2022-12-20T14:53:36;3.90;;;3.15;;
46607;SDS011;32330;51.936;7.184;2022-12-20T14:56:11;4.78;;;3.53;;
46607;SDS011;32330;51.936;7.184;2022-12-20T14:58:39;6.38;;;3.55;;
46607;SDS011;32330;51.936;7.184;2022-12-20T15:01:16;4.82;;;3.50;;
46607;SDS011;32330;51.936;7.184;2022-12-20T15:03:48;4.43;;;2.78;;
46607;SDS011;32330;51.936;7.184;2022-12-20T15:06:30;5.85;;;3.40;;
46607;SDS011;32330;51.936;7.184;2022-12-20T15:08:59;3.97;;;2.78;;
46607;SDS011;32330;51.936;7.184;2022-12-20T15:11:27;3.92;;;2.90;;
46607;SDS011;32330;51.936;7.184;2022-12-20T15:13:54;3.25;;;2.72;;
46607;SDS011;32330;51.936;7.184;2022-12-20T15:16:23;7.32;;;3.60;;
46607;SDS011;32330;51.936;7.184;2022-12-20T15:18:53;3.80;;;2.90;;
46607;SDS011;32330;51.936;7.184;2022-12-20T15:21:23;6.20;;;2.78;;
46607;SDS011;32330;51.936;7.184;2022-12-20T15:23:54;3.90;;;2.92;;
46607;SDS011;32330;51.936;7.184;2022-12-20T15:26:25;5.65;;;3.72;;
46607;SDS011;32330;51.936;7.184;2022-12-20T15:28:52;5.38;;;4.05;;
46607;SDS011;32330;51.936;7.184;2022-12-20T15:31:20;5.57;;;4.45;;
46607;SDS011;32330;51.936;7.184;2022-12-20T15:33:49;4.82;;;4.13;;
46607;SDS011;32330;51.936;7.184;2022-12-20T15:36:19;6.43;;;4.78;;
46607;SDS011;32330;51.936;7.184;2022-12-20T15:38:49;9.03;;;5.33;;
46607;SDS011;32330;51.936;7.184;2022-12-20T15:41:18;8.60;;;5.57;;
46607;SDS011;32330;51.936;7.184;2022-12-20T15:43:50;8.00;;;5.87;;
46607;SDS011;32330;51.936;7.184;2022-12-20T15:46:19;7.50;;;5.68;;
46607;SDS011;32330;51.936;7.184;2022-12-20T15:48:46;7.43;;;6.28;;
46607;SDS011;32330;51.936;7.184;2022-12-20T15:51:14;8.18;;;6.43;;
46607;SDS011;32330;51.936;7.184;2022-12-20T15:53:43;9.95;;;6.95;;
46607;SDS011;32330;51.936;7.184;2022-12-20T15:56:13;8.88;;;7.97;;
46607;SDS011;32330;51.936;7.184;2022-12-20T15:58:43;10.18;;;7.35;;
46607;SDS011;32330;51.936;7.184;2022-12-20T16:01:14;10.02;;;8.35;;
46607;SDS011;32330;51.936;7.184;2022-12-20T16:03:43;10.15;;;9.18;;
46607;SDS011;32330;51.936;7.184;2022-12-20T16:06:10;10.23;;;8.93;;
46607;SDS011;32330;51.936;7.184;2022-12-20T16:08:37;11.50;;;10.27;;
46607;SDS011;32330;51.936;7.184;2022-12-20T16:11:05;12.50;;;10.43;;
46607;SDS011;32330;51.936;7.184;2022-12-20T16:13:39;14.18;;;12.57;;
46607;SDS011;32330;51.936;7.184;2022-12-20T16:16:07;11.65;;;9.23;;
46607;SDS011;32330;51.936;7.184;2022-12-20T16:18:42;10.30;;;9.38;;
46607;SDS011;32330;51.936;7.184;2022-12-20T16:21:11;11.73;;;9.55;;
46607;SDS011;32330;51.936;7.184;2022-12-20T16:23:42;9.60;;;8.65;;
46607;SDS011;32330;51.936;7.184;2022-12-20T16:26:10;12.70;;;10.07;;
46607;SDS011;32330;51.936;7.184;2022-12-20T16:28:38;9.82;;;8.20;;
46607;SDS011;32330;51.936;7.184;2022-12-20T16:31:08;16.15;;;12.80;;
46607;SDS011;32330;51.936;7.184;2022-12-20T16:33:37;13.43;;;11.60;;
46607;SDS011;32330;51.936;7.184;2022-12-20T16:36:05;10.85;;;9.13;;
46607;SDS011;32330;51.936;7.184;2022-12-20T16:38:34;10.07;;;8.25;;
46607;SDS011;32330;51.936;7.184;2022-12-20T16:41:05;9.65;;;8.65;;
46607;SDS011;32330;51.936;7.184;2022-12-20T16:43:37;11.98;;;8.82;;
46607;SDS011;32330;51.936;7.184;2022-12-20T16:46:04;11.52;;;8.82;;
46607;SDS011;32330;51.936;7.184;2022-12-20T16:48:31;12.05;;;9.65;;
46607;SDS011;32330;51.936;7.184;2022-12-20T16:51:00;10.98;;;9.88;;
46607;SDS011;32330;51.936;7.184;2022-12-20T16:53:27;11.85;;;9.25;;
46607;SDS011;32330;51.936;7.184;2022-12-20T16:55:54;14.85;;;11.18;;
46607;SDS011;32330;51.936;7.184;2022-12-20T16:58:20;12.85;;;10.15;;
46607;SDS011;32330;51.936;7.184;2022-12-20T17:00:48;14.15;;;11.00;;
46607;SDS011;32330;51.936;7.184;2022-12-20T17:03:15;13.05;;;10.25;;
46607;SDS011;32330;51.936;7.184;2022-12-20T17:05:42;10.95;;;9.32;;
46607;SDS011;32330;51.936;7.184;2022-12-20T17:08:10;9.75;;;8.75;;
46607;SDS011;32330;51.936;7.184;2022-12-20T17:10:38;10.43;;;8.45;;
46607;SDS011;32330;51.936;7.184;2022-12-20T17:13:05;11.73;;;8.13;;
46607;SDS011;32330;51.936;7.184;2022-12-20T17:15:32;11.00;;;8.43;;
46607;SDS011;32330;51.936;7.184;2022-12-20T17:17:58;15.05;;;10.70;;
46607;SDS011;32330;51.936;7.184;2022-12-20T17:20:25;16.27;;;9.00;;
46607;SDS011;32330;51.936;7.184;2022-12-20T17:22:53;10.90;;;8.18;;
46607;SDS011;32330;51.936;7.184;2022-12-20T17:25:26;12.77;;;8.25;;
46607;SDS011;32330;51.936;7.184;2022-12-20T17:27:55;13.27;;;11.93;;
46607;SDS011;32330;51.936;7.184;2022-12-20T17:30:22;13.98;;;12.32;;
46607;SDS011;32330;51.936;7.184;2022-12-20T17:32:50;12.07;;;10.88;;
46607;SDS011;32330;51.936;7.184;2022-12-20T17:35:19;12.80;;;8.93;;
46607;SDS011;32330;51.936;7.184;2022-12-20T17:37:51;16.25;;;13.57;;
46607;SDS011;32330;51.936;7.184;2022-12-20T17:40:20;11.25;;;9.88;;
46607;SDS011;32330;51.936;7.184;2022-12-20T17:42:50;12.63;;;8.85;;
46607;SDS011;32330;51.936;7.184;2022-12-20T17:45:24;10.15;;;9.10;;
46607;SDS011;32330;51.936;7.184;2022-12-20T17:47:53;12.68;;;11.27;;
46607;SDS011;32330;51.936;7.184;2022-12-20T17:50:21;14.48;;;11.25;;
46607;SDS011;32330;51.936;7.184;2022-12-20T17:52:49;12.18;;;9.32;;
46607;SDS011;32330;51.936;7.184;2022-12-20T17:55:17;12.23;;;9.68;;
46607;SDS011;32330;51.936;7.184;2022-12-20T17:57:46;11.95;;;8.93;;
46607;SDS011;32330;51.936;7.184;2022-12-20T18:00:22;10.63;;;7.60;;
46607;SDS011;32330;51.936;7.184;2022-12-20T18:02:51;10.80;;;8.13;;
46607;SDS011;32330;51.936;7.184;2022-12-20T18:05:19;10.88;;;7.75;;
46607;SDS011;32330;51.936;7.184;2022-12-20T18:07:50;12.45;;;8.20;;
46607;SDS011;32330;51.936;7.184;2022-12-20T18:12:45;21.65;;;14.65;;
46607;SDS011;32330;51.936;7.184;2022-12-20T18:15:12;12.20;;;10.20;;
46607;SDS011;32330;51.936;7.184;2022-12-20T18:17:41;10.07;;;8.88;;
46607;SDS011;32330;51.936;7.184;2022-12-20T18:20:09;11.68;;;9.63;;
46607;SDS011;32330;51.936;7.184;2022-12-20T18:22:36;10.10;;;8.57;;
46607;SDS011;32330;51.936;7.184;2022-12-20T18:25:03;11.45;;;8.60;;
46607;SDS011;32330;51.936;7.184;2022-12-20T18:27:36;11.57;;;8.75;;
46607;SDS011;32330;51.936;7.184;2022-12-20T18:30:05;12.90;;;8.25;;
46607;SDS011;32330;51.936;7.184;2022-12-20T18:32:33;13.52;;;8.55;;
46607;SDS011;32330;51.936;7.184;2022-12-20T18:35:02;14.90;;;10.75;;
46607;SDS011;32330;51.936;7.184;2022-12-20T18:37:29;15.80;;;9.23;;
46607;SDS011;32330;51.936;7.184;2022-12-20T18:39:56;11.90;;;8.68;;
46607;SDS011;32330;51.936;7.184;2022-12-20T18:42:23;11.15;;;8.75;;
46607;SDS011;32330;51.936;7.184;2022-12-20T18:44:50;12.25;;;9.43;;
46607;SDS011;32330;51.936;7.184;2022-12-20T18:47:17;12.63;;;9.45;;
46607;SDS011;32330;51.936;7.184;2022-12-20T18:49:44;13.98;;;10.55;;
46607;SDS011;32330;51.936;7.184;2022-12-20T18:52:12;13.60;;;10.32;;
46607;SDS011;32330;51.936;7.184;2022-12-20T18:54:40;14.32;;;9.85;;
46607;SDS011;32330;51.936;7.184;2022-12-20T18:57:07;11.95;;;8.75;;
46607;SDS011;32330;51.936;7.184;2022-12-20T18:59:33;10.93;;;8.82;;
46607;SDS011;32330;51.936;7.184;2022-12-20T19:02:00;13.80;;;10.32;;
46607;SDS011;32330;51.936;7.184;2022-12-20T19:04:28;11.55;;;9.75;;
46607;SDS011;32330;51.936;7.184;2022-12-20T19:06:54;11.88;;;10.52;;